Time;durP1;ratioP1;P1;durP2;ratioP2;P2;SDS_P1;SDS_P2;PMS_P1;PMS_P2;Temp;Humidity;BMP_temperature;BMP_pressure;BME280_temperature;BME280_humidity;BME280_pressure;Samples;Min_cycle;Max_cycle;Signal;HPM_P1;HPM_P2
2023/01/06 04:01:31;;;;;;;;;;;10.60;99.90;;;;;;5704546;23;19933;-68
2023/01/06 04:03:58;;;;;;;;;;;10.60;99.90;;;;;;4974419;28;20005;-68
2023/01/06 04:06:28;;;;;;;;;;;10.60;99.90;;;;;;4973191;28;19937;-69
2023/01/06 04:08:55;;;;;;;;;;;10.60;99.90;;;;;;4972471;28;19933;-68
2023/01/06 04:14:08;;;;;;;;;;;10.60;99.90;;;;;;4975572;28;20308;-67
2023/01/06 04:16:36;;;;;;;;;;;10.70;99.90;;;;;;4975777;28;20020;-69
2023/01/06 04:19:02;;;;;;;;;;;10.60;99.90;;;;;;4971378;28;19926;-68
2023/01/06 04:21:30;;;;;;;;;;;10.60;99.90;;;;;;4973358;28;19930;-68
2023/01/06 04:23:57;;;;;;;;;;;10.60;99.90;;;;;;4971644;28;19933;-69
2023/01/06 04:26:23;;;;;;;;;;;10.60;99.90;;;;;;4970785;28;19930;-68
2023/01/06 04:28:50;;;;;;;;;;;10.60;99.90;;;;;;4970850;28;19931;-67
2023/01/06 04:31:18;;;;;;;;;;;10.50;99.90;;;;;;4971162;28;19977;-68
2023/01/06 04:33:47;;;;;;;;;;;10.50;99.90;;;;;;4970439;28;19961;-67
2023/01/06 04:36:14;;;;;;;;;;;10.50;99.90;;;;;;4971580;28;20004;-68
2023/01/06 04:38:44;;;;;;;;;;;10.60;99.90;;;;;;4967722;28;19926;-68
2023/01/06 04:41:10;;;;;;;;;;;10.50;99.90;;;;;;4972240;28;20041;-68
2023/01/06 04:43:37;;;;;;;;;;;10.60;99.90;;;;;;4971860;28;20012;-68
2023/01/06 04:46:04;;;;;;;;;;;10.60;99.90;;;;;;4970890;28;19976;-68
2023/01/06 04:48:30;;;;;;;;;;;10.60;99.90;;;;;;4967302;28;19933;-68
2023/01/06 04:51:02;;;;;;;;;;;10.60;99.90;;;;;;4970623;28;19976;-68
2023/01/06 04:53:28;;;;;;;;;;;10.60;99.90;;;;;;4972071;28;20028;-68
2023/01/06 04:55:55;;;;;;;;;;;10.60;99.90;;;;;;4968533;28;19926;-68
2023/01/06 04:58:22;;;;;;;;;;;10.60;99.90;;;;;;4970680;28;19974;-68
2023/01/06 05:00:48;;;;;;;;;;;10.60;99.90;;;;;;4967251;28;20021;-67
2023/01/06 05:03:15;;;;;;;;;;;10.70;99.90;;;;;;4971363;28;20488;-69
2023/01/06 05:05:42;;;;;;;;;;;10.60;99.90;;;;;;4970883;28;19980;-68
2023/01/06 05:08:10;;;;;;;;;;;10.60;99.90;;;;;;4970872;28;19934;-68
2023/01/06 05:10:36;;;;;;;;;;;10.60;99.90;;;;;;4970201;28;19930;-68
2023/01/06 05:13:03;;;;;;;;;;;10.60;99.90;;;;;;4970548;28;19981;-68
2023/01/06 05:15:30;;;;;;;;;;;10.60;99.90;;;;;;4970559;28;19926;-68
2023/01/06 05:17:57;;;;;;;;;;;10.60;99.90;;;;;;4969785;28;19926;-69
2023/01/06 05:20:24;;;;;;;;;;;10.50;99.90;;;;;;4970449;28;19930;-69
2023/01/06 05:22:51;;;;;;;;;;;10.50;99.90;;;;;;4970489;28;19977;-67
2023/01/06 05:25:19;;;;;;;;;;;10.50;99.90;;;;;;4972946;28;19930;-68
2023/01/06 05:27:46;;;;;;;;;;;10.50;99.90;;;;;;4970496;28;20304;-69
2023/01/06 05:30:13;;;;;;;;;;;10.50;99.90;;;;;;4970259;28;20282;-69
2023/01/06 05:32:39;;;;;;;;;;;10.50;99.90;;;;;;4968772;28;19931;-69
2023/01/06 05:35:06;;;;;;;;;;;10.60;99.90;;;;;;4970733;28;19930;-68
2023/01/06 05:37:34;;;;;;;;;;;10.60;99.90;;;;;;4971854;28;20348;-68
2023/01/06 05:40:01;;;;;;;;;;;10.60;99.90;;;;;;4970379;28;19969;-69
2023/01/06 05:42:29;;;;;;;;;;;10.60;99.90;;;;;;4987007;28;19930;-68
2023/01/06 05:44:56;;;;;;;;;;;10.60;99.90;;;;;;4970823;28;19955;-69
2023/01/06 05:47:22;;;;;;;;;;;10.60;99.90;;;;;;4969964;28;19992;-67
2023/01/06 05:49:49;;;;;;;;;;;10.60;99.90;;;;;;4973724;28;19926;-69
2023/01/06 05:52:16;;;;;;;;;;;10.60;99.90;;;;;;4973929;28;20058;-68
2023/01/06 05:54:43;;;;;;;;;;;10.60;99.90;;;;;;4970989;28;19926;-68
2023/01/06 05:57:10;;;;;;;;;;;10.60;99.90;;;;;;4971073;28;19981;-69
2023/01/06 05:59:38;;;;;;;;;;;10.60;99.90;;;;;;4973239;28;20377;-68
2023/01/06 06:02:05;;;;;;;;;;;10.70;99.90;;;;;;4970682;28;19926;-66
2023/01/06 06:04:32;;;;;;;;;;;10.70;99.90;;;;;;4974324;28;19949;-68
2023/01/06 06:06:58;;;;;;;;;;;10.60;99.90;;;;;;4970128;28;19930;-69
2023/01/06 06:09:25;;;;;;;;;;;10.70;99.90;;;;;;4970627;28;19926;-69
2023/01/06 06:11:53;;;;;;;;;;;10.70;99.90;;;;;;4972300;28;19926;-69
2023/01/06 06:14:20;;;;;;;;;;;10.70;99.90;;;;;;4967560;28;19930;-69
2023/01/06 06:16:48;;;;;;;;;;;10.60;99.90;;;;;;4988310;28;19957;-70
2023/01/06 06:19:15;;;;;;;;;;;10.60;99.90;;;;;;4972906;28;20420;-69
2023/01/06 06:21:42;;;;;;;;;;;10.60;99.90;;;;;;4973283;28;19926;-69
2023/01/06 06:24:09;;;;;;;;;;;10.50;99.90;;;;;;4973272;28;19930;-69
2023/01/06 06:26:36;;;;;;;;;;;10.50;99.90;;;;;;4973247;28;20337;-69
2023/01/06 06:29:04;;;;;;;;;;;10.40;99.90;;;;;;4972823;28;19930;-69
2023/01/06 06:31:31;;;;;;;;;;;10.40;99.90;;;;;;4972964;28;19965;-68
2023/01/06 06:34:00;;;;;;;;;;;10.40;99.90;;;;;;4973169;28;20008;-68
2023/01/06 06:36:27;;;;;;;;;;;10.40;99.90;;;;;;4972807;28;19965;-68
2023/01/06 06:38:54;;;;;;;;;;;10.30;99.90;;;;;;4971873;28;19930;-68
2023/01/06 06:41:21;;;;;;;;;;;10.40;99.90;;;;;;4972821;28;19926;-68
2023/01/06 06:43:49;;;;;;;;;;;10.40;99.90;;;;;;4972688;28;20443;-68
2023/01/06 06:46:15;;;;;;;;;;;10.50;99.90;;;;;;4966537;28;20305;-68
2023/01/06 06:48:42;;;;;;;;;;;10.50;99.90;;;;;;4972511;28;20344;-68
2023/01/06 06:51:11;;;;;;;;;;;10.50;99.90;;;;;;4971326;28;19930;-69
2023/01/06 06:53:39;;;;;;;;;;;10.50;99.90;;;;;;4972903;28;19926;-69
2023/01/06 06:56:07;;;;;;;;;;;10.50;99.90;;;;;;4971363;28;20370;-68
2023/01/06 06:58:34;;;;;;;;;;;10.50;99.90;;;;;;4972233;28;19949;-68
2023/01/06 07:01:03;;;;;;;;;;;10.50;99.90;;;;;;4971342;28;19929;-69
2023/01/06 07:03:30;;;;;;;;;;;10.50;99.90;;;;;;4968700;28;20384;-68
2023/01/06 07:05:58;;;;;;;;;;;10.50;99.90;;;;;;4972855;28;19929;-75
2023/01/06 07:08:26;;;;;;;;;;;10.50;99.90;;;;;;4968887;28;19957;-74
2023/01/06 07:10:53;;;;;;;;;;;10.50;99.90;;;;;;4968860;28;19937;-69
2023/01/06 07:13:19;;;;;;;;;;;10.50;99.90;;;;;;4972483;28;19937;-69
2023/01/06 07:15:46;;;;;;;;;;;10.50;99.90;;;;;;4972378;28;20043;-69
2023/01/06 07:18:13;;;;;;;;;;;10.50;99.90;;;;;;4972433;28;19930;-68
2023/01/06 07:20:40;;;;;;;;;;;10.50;99.90;;;;;;4972064;28;19930;-69
2023/01/06 07:23:06;;;;;;;;;;;10.50;99.90;;;;;;4972563;28;19937;-69
2023/01/06 07:25:34;;;;;;;;;;;10.50;99.90;;;;;;4971914;28;20412;-70
2023/01/06 07:28:04;;;;;;;;;;;10.50;99.90;;;;;;4972062;28;19926;-69
2023/01/06 07:30:31;;;;;;;;;;;10.60;99.90;;;;;;4965963;28;19926;-68
2023/01/06 07:32:58;;;;;;;;;;;10.60;99.90;;;;;;4972086;28;19933;-69
2023/01/06 07:35:25;;;;;;;;;;;10.60;99.90;;;;;;4972192;28;19929;-69
2023/01/06 07:37:51;;;;;;;;;;;10.60;99.90;;;;;;4971813;28;19997;-69
2023/01/06 07:40:18;;;;;;;;;;;10.60;99.90;;;;;;4971679;28;20017;-68
2023/01/06 07:42:47;;;;;;;;;;;10.60;99.90;;;;;;4971442;28;19930;-65
2023/01/06 07:45:13;;;;;;;;;;;10.60;99.90;;;;;;4971549;28;19933;-69
2023/01/06 07:47:40;;;;;;;;;;;10.70;99.90;;;;;;4972037;28;20375;-69
2023/01/06 07:50:07;;;;;;;;;;;10.70;99.90;;;;;;4971462;28;19934;-69
2023/01/06 07:52:34;;;;;;;;;;;10.70;99.90;;;;;;4971694;28;19930;-68
2023/01/06 07:55:01;;;;;;;;;;;10.70;99.90;;;;;;4971801;28;19926;-69
2023/01/06 07:57:28;;;;;;;;;;;10.80;99.90;;;;;;4971549;28;19926;-69
2023/01/06 07:59:56;;;;;;;;;;;10.80;99.90;;;;;;4971354;28;19930;-70
2023/01/06 08:02:23;;;;;;;;;;;10.80;99.90;;;;;;4970698;28;19927;-69
2023/01/06 08:04:50;;;;;;;;;;;10.80;99.90;;;;;;4975832;28;19937;-65
2023/01/06 08:07:17;;;;;;;;;;;10.80;99.90;;;;;;4971520;28;19925;-67
2023/01/06 08:09:44;;;;;;;;;;;10.80;99.90;;;;;;4970517;28;19930;-68
2023/01/06 08:12:10;;;;;;;;;;;10.80;99.90;;;;;;4970820;28;19978;-65
2023/01/06 08:14:37;;;;;;;;;;;10.80;99.90;;;;;;4972328;28;19981;-68
2023/01/06 08:17:06;;;;;;;;;;;10.80;99.90;;;;;;4971309;28;19930;-69
2023/01/06 08:19:33;;;;;;;;;;;10.80;99.90;;;;;;4970672;28;19981;-71
2023/01/06 08:22:00;;;;;;;;;;;10.80;99.90;;;;;;4972094;28;19930;-68
2023/01/06 08:24:29;;;;;;;;;;;10.80;99.90;;;;;;4968715;28;19930;-69
2023/01/06 08:26:56;;;;;;;;;;;10.80;99.90;;;;;;4970927;28;20294;-67
2023/01/06 08:29:22;;;;;;;;;;;10.80;99.90;;;;;;4970608;28;20006;-68
2023/01/06 08:31:49;;;;;;;;;;;10.80;99.90;;;;;;4969993;28;19933;-68
2023/01/06 08:34:17;;;;;;;;;;;10.70;99.90;;;;;;4969131;28;19933;-67
2023/01/06 08:36:44;;;;;;;;;;;10.70;99.90;;;;;;4973838;28;20344;-68
2023/01/06 08:39:11;;;;;;;;;;;10.70;99.90;;;;;;4967576;28;20424;-67
2023/01/06 08:41:38;;;;;;;;;;;10.70;99.90;;;;;;4971876;28;19933;-68
2023/01/06 08:44:05;;;;;;;;;;;10.70;99.90;;;;;;4969311;28;19933;-68
2023/01/06 08:46:33;;;;;;;;;;;10.80;99.90;;;;;;4970357;28;19930;-69
2023/01/06 08:48:59;;;;;;;;;;;10.80;99.90;;;;;;4970068;28;19930;-67
2023/01/06 08:51:28;;;;;;;;;;;10.80;99.90;;;;;;4970396;28;19930;-67
2023/01/06 08:53:55;;;;;;;;;;;10.80;99.90;;;;;;4970638;28;19934;-70
2023/01/06 08:56:23;;;;;;;;;;;10.80;99.90;;;;;;4972804;28;19977;-70
2023/01/06 08:58:50;;;;;;;;;;;10.80;99.90;;;;;;4966528;28;19926;-65
2023/01/06 09:01:17;;;;;;;;;;;10.80;99.90;;;;;;4970556;28;19926;-68
2023/01/06 09:03:44;;;;;;;;;;;10.70;99.90;;;;;;4970045;28;19926;-67
2023/01/06 09:06:11;;;;;;;;;;;10.60;99.90;;;;;;4970005;28;19967;-68
2023/01/06 09:08:39;;;;;;;;;;;10.50;99.90;;;;;;4969930;28;19926;-67
2023/01/06 09:11:07;;;;;;;;;;;10.40;99.90;;;;;;4968692;28;19930;-68
2023/01/06 09:13:34;;;;;;;;;;;10.30;99.90;;;;;;4972384;28;20392;-64
2023/01/06 09:16:01;;;;;;;;;;;10.30;99.90;;;;;;4970350;28;19934;-68
2023/01/06 09:18:28;;;;;;;;;;;10.30;99.90;;;;;;4972815;28;19926;-68
2023/01/06 09:20:55;;;;;;;;;;;10.30;99.90;;;;;;4972327;28;19930;-68
2023/01/06 09:23:22;;;;;;;;;;;10.30;99.90;;;;;;4976633;28;19930;-69
2023/01/06 09:25:50;;;;;;;;;;;10.30;99.90;;;;;;4973208;28;20021;-68
2023/01/06 09:28:17;;;;;;;;;;;10.20;99.90;;;;;;4969064;28;19930;-68
2023/01/06 09:30:47;;;;;;;;;;;10.20;99.90;;;;;;4972509;28;20468;-70
2023/01/06 09:33:14;;;;;;;;;;;10.20;99.90;;;;;;4973498;28;19926;-69
2023/01/06 09:35:40;;;;;;;;;;;10.20;99.90;;;;;;4971988;28;19997;-70
2023/01/06 09:38:07;;;;;;;;;;;10.30;99.90;;;;;;4969835;28;20474;-71
2023/01/06 09:40:41;;;;;;;;;;;10.40;99.90;;;;;;4970970;28;19926;-68
2023/01/06 09:43:15;;;;;;;;;;;10.40;99.90;;;;;;4970588;28;19933;-68
2023/01/06 09:45:45;;;;;;;;;;;10.40;99.90;;;;;;4969311;28;19929;-69
2023/01/06 09:48:15;;;;;;;;;;;10.50;99.90;;;;;;4972329;28;19926;-66
2023/01/06 09:50:44;;;;;;;;;;;10.40;99.90;;;;;;4972891;28;20397;-69
2023/01/06 09:53:14;;;;;;;;;;;10.30;99.90;;;;;;4966289;28;19934;-68
2023/01/06 09:55:42;;;;;;;;;;;10.20;99.90;;;;;;4997520;28;19930;-68
2023/01/06 09:58:12;;;;;;;;;;;10.30;99.90;;;;;;4972947;28;19985;-68
2023/01/06 10:00:41;;;;;;;;;;;10.30;99.90;;;;;;4972398;28;20389;-68
2023/01/06 10:03:11;;;;;;;;;;;10.30;99.90;;;;;;4972760;28;19985;-68
2023/01/06 10:05:41;;;;;;;;;;;10.40;99.90;;;;;;4968308;28;19926;-68
2023/01/06 10:08:14;;;;;;;;;;;10.50;99.90;;;;;;4974865;28;19977;-67
2023/01/06 10:10:44;;;;;;;;;;;10.40;99.90;;;;;;4973894;28;19926;-67
2023/01/06 10:13:23;;;;;;;;;;;10.40;99.90;;;;;;4970582;28;20504;-67
2023/01/06 10:15:53;;;;;;;;;;;10.50;99.90;;;;;;4970109;28;19926;-67
2023/01/06 10:18:29;;;;;;;;;;;10.60;99.90;;;;;;4968572;28;19930;-66
2023/01/06 10:21:03;;;;;;;;;;;10.70;99.90;;;;;;4970754;28;19993;-66
2023/01/06 10:23:43;;;;;;;;;;;10.70;99.90;;;;;;4973360;28;19926;-67
2023/01/06 10:26:12;;;;;;;;;;;10.80;99.90;;;;;;4972541;28;19926;-67
2023/01/06 10:28:42;;;;;;;;;;;10.90;99.90;;;;;;4969471;28;19938;-67
2023/01/06 10:31:11;;;;;;;;;;;11.20;99.90;;;;;;4974003;28;19926;-68
2023/01/06 10:33:40;;;;;;;;;;;11.40;99.90;;;;;;4971660;28;19961;-68
2023/01/06 10:36:10;;;;;;;;;;;11.60;99.90;;;;;;4973098;28;19933;-69
2023/01/06 10:38:39;;;;;;;;;;;11.70;99.90;;;;;;4967484;28;19926;-68
2023/01/06 10:41:12;;;;;;;;;;;11.60;99.90;;;;;;4971759;28;19930;-67
2023/01/06 10:43:40;;;;;;;;;;;11.40;99.90;;;;;;4973404;28;19926;-67
2023/01/06 10:46:07;;;;;;;;;;;11.40;99.90;;;;;;4965038;28;19926;-68
2023/01/06 10:48:34;;;;;;;;;;;11.40;99.90;;;;;;4973472;28;20451;-68
2023/01/06 10:51:06;;;;;;;;;;;11.50;99.90;;;;;;4976836;28;20475;-68
2023/01/06 10:53:33;;;;;;;;;;;11.40;99.90;;;;;;4998937;28;19930;-68
2023/01/06 10:56:00;;;;;;;;;;;11.40;99.90;;;;;;4969681;28;19926;-68
2023/01/06 10:58:32;;;;;;;;;;;11.30;99.90;;;;;;4971708;28;19957;-68
2023/01/06 11:01:06;;;;;;;;;;;11.40;99.90;;;;;;4971373;28;20393;-68
2023/01/06 11:03:33;;;;;;;;;;;11.40;99.90;;;;;;4971420;28;20397;-67
2023/01/06 11:06:02;;;;;;;;;;;11.40;99.90;;;;;;4973101;28;19932;-70
2023/01/06 11:08:29;;;;;;;;;;;11.50;99.90;;;;;;4966134;28;19926;-67
2023/01/06 11:10:57;;;;;;;;;;;11.40;99.90;;;;;;4966077;28;20306;-66
2023/01/06 11:13:25;;;;;;;;;;;11.30;99.90;;;;;;4971676;28;20025;-67
2023/01/06 11:15:53;;;;;;;;;;;11.10;99.90;;;;;;4971474;28;19930;-67
2023/01/06 11:18:22;;;;;;;;;;;11.00;99.90;;;;;;4983896;28;20074;-67
2023/01/06 11:21:01;;;;;;;;;;;10.90;99.90;;;;;;4971761;28;19926;-66
2023/01/06 11:23:28;;;;;;;;;;;10.80;99.90;;;;;;4970427;28;20444;-68
2023/01/06 11:26:03;;;;;;;;;;;10.80;99.90;;;;;;4969389;28;19981;-66
2023/01/06 11:28:30;;;;;;;;;;;10.80;99.90;;;;;;4967453;28;19930;-71
2023/01/06 11:30:59;;;;;;;;;;;10.80;99.90;;;;;;4971179;28;20320;-70
2023/01/06 11:33:28;;;;;;;;;;;10.70;99.90;;;;;;4969858;28;19970;-68
2023/01/06 11:35:56;;;;;;;;;;;10.70;99.90;;;;;;4989865;28;19985;-68
2023/01/06 11:38:23;;;;;;;;;;;10.80;99.90;;;;;;4968737;28;19934;-69
2023/01/06 11:40:50;;;;;;;;;;;10.90;99.90;;;;;;4971500;28;20278;-68
2023/01/06 11:43:22;;;;;;;;;;;11.00;99.90;;;;;;4960843;28;22071;-68
2023/01/06 11:45:52;;;;;;;;;;;11.10;99.90;;;;;;4971657;28;19933;-69
2023/01/06 11:48:20;;;;;;;;;;;11.10;99.90;;;;;;4970088;28;19977;-66
2023/01/06 11:50:52;;;;;;;;;;;11.10;99.90;;;;;;4970703;28;20361;-68
2023/01/06 11:53:23;;;;;;;;;;;11.20;99.90;;;;;;4972974;28;19930;-69
2023/01/06 11:56:01;;;;;;;;;;;11.20;99.90;;;;;;4972685;28;20392;-69
2023/01/06 11:58:37;;;;;;;;;;;11.20;99.90;;;;;;4982072;28;19934;-69
2023/01/06 12:01:06;;;;;;;;;;;11.10;99.90;;;;;;4969646;28;19926;-69
2023/01/06 12:03:34;;;;;;;;;;;11.00;99.90;;;;;;4970263;28;20046;-75
2023/01/06 12:06:07;;;;;;;;;;;10.90;99.90;;;;;;4970665;28;19981;-68
2023/01/06 12:08:36;;;;;;;;;;;10.90;99.90;;;;;;4968587;28;19930;-68
2023/01/06 12:11:05;;;;;;;;;;;11.00;99.90;;;;;;4968161;28;19926;-68
2023/01/06 12:13:32;;;;;;;;;;;11.10;99.90;;;;;;4972008;28;19927;-68
2023/01/06 12:16:02;;;;;;;;;;;12.50;99.90;;;;;;4993889;28;19926;-69
2023/01/06 12:18:31;;;;;;;;;;;13.50;99.90;;;;;;4970193;28;19993;-69
2023/01/06 12:20:58;;;;;;;;;;;12.70;99.90;;;;;;4970067;28;19934;-68
2023/01/06 12:23:29;;;;;;;;;;;11.90;99.90;;;;;;4971356;28;19926;-68
2023/01/06 12:25:57;;;;;;;;;;;11.50;99.90;;;;;;4972245;28;19989;-68
2023/01/06 12:28:27;;;;;;;;;;;11.20;99.90;;;;;;4969989;28;20460;-68
2023/01/06 12:30:58;;;;;;;;;;;11.20;99.90;;;;;;4965657;28;20000;-69
2023/01/06 12:33:27;;;;;;;;;;;11.20;99.90;;;;;;4966988;28;19937;-68
2023/01/06 12:35:55;;;;;;;;;;;11.10;99.90;;;;;;4985383;28;20677;-68
2023/01/06 12:38:38;;;;;;;;;;;11.00;99.90;;;;;;4964890;28;19953;-69
2023/01/06 12:41:09;;;;;;;;;;;11.00;99.90;;;;;;4968160;28;19926;-68
2023/01/06 12:43:37;;;;;;;;;;;11.10;99.90;;;;;;4970057;28;19937;-68
2023/01/06 12:46:07;;;;;;;;;;;11.00;99.90;;;;;;4967878;28;19926;-69
2023/01/06 12:48:39;;;;;;;;;;;11.10;99.90;;;;;;4994642;28;20459;-68
2023/01/06 12:51:08;;;;;;;;;;;11.50;99.90;;;;;;4972072;28;20356;-68
2023/01/06 12:53:37;;;;;;;;;;;11.80;99.90;;;;;;4970069;28;19926;-68
2023/01/06 12:56:13;;;;;;;;;;;11.80;99.90;;;;;;4984164;28;19938;-69
2023/01/06 12:58:46;;;;;;;;;;;11.70;99.90;;;;;;4970005;28;19930;-69
2023/01/06 13:01:17;;;;;;;;;;;11.70;99.90;;;;;;4969839;28;19926;-70
2023/01/06 13:03:55;;;;;;;;;;;11.60;99.90;;;;;;4968843;28;19985;-68
2023/01/06 13:06:26;;;;;;;;;;;11.50;99.90;;;;;;4965648;28;19930;-67
2023/01/06 13:08:58;;;;;;;;;;;11.40;99.90;;;;;;4979195;28;19952;-69
2023/01/06 13:11:30;;;;;;;;;;;11.30;99.90;;;;;;4964674;28;19931;-67
2023/01/06 13:14:02;;;;;;;;;;;11.30;99.90;;;;;;4969692;28;19945;-67
2023/01/06 13:16:34;;;;;;;;;;;11.20;99.90;;;;;;4967143;28;19926;-68
2023/01/06 13:19:07;;;;;;;;;;;11.10;99.90;;;;;;4969301;28;19953;-67
2023/01/06 13:21:34;;;;;;;;;;;11.00;99.90;;;;;;4959622;28;20368;-68
2023/01/06 13:24:16;;;;;;;;;;;10.80;99.90;;;;;;4970297;28;19926;-68
2023/01/06 13:27:01;;;;;;;;;;;10.80;99.90;;;;;;4969282;28;19941;-67
2023/01/06 13:29:36;;;;;;;;;;;10.70;99.90;;;;;;4983594;28;19930;-68
2023/01/06 13:32:09;;;;;;;;;;;10.70;99.90;;;;;;4970820;28;19993;-68
2023/01/06 13:34:58;;;;;;;;;;;10.70;99.90;;;;;;4970234;28;19934;-67
2023/01/06 13:37:34;;;;;;;;;;;10.70;99.90;;;;;;4966049;28;20061;-68
2023/01/06 13:40:02;;;;;;;;;;;10.70;99.90;;;;;;4967290;28;19926;-67
2023/01/06 13:42:35;;;;;;;;;;;10.70;99.90;;;;;;4970104;28;19930;-68
2023/01/06 13:45:03;;;;;;;;;;;10.70;99.90;;;;;;4969502;28;19930;-76
2023/01/06 13:47:29;;;;;;;;;;;10.60;99.90;;;;;;4970400;28;19926;-77
2023/01/06 13:49:58;;;;;;;;;;;10.70;99.90;;;;;;4970558;28;19926;-80
2023/01/06 13:52:25;;;;;;;;;;;10.70;99.90;;;;;;4968044;28;19926;-71
2023/01/06 13:55:06;;;;;;;;;;;10.70;99.90;;;;;;4970183;28;19926;-71
2023/01/06 13:57:39;;;;;;;;;;;10.70;99.90;;;;;;4969484;28;19980;-69
2023/01/06 14:00:27;;;;;;;;;;;10.70;99.90;;;;;;4970309;28;19926;-68
2023/01/06 14:03:22;;;;;;;;;;;10.70;99.90;;;;;;4970826;28;19926;-68
2023/01/06 14:05:54;;;;;;;;;;;10.70;99.90;;;;;;4972353;28;19941;-68
2023/01/06 14:08:21;;;;;;;;;;;10.70;99.90;;;;;;4971635;28;19933;-69
2023/01/06 14:10:54;;;;;;;;;;;10.70;99.90;;;;;;4973409;28;19926;-67
2023/01/06 14:13:23;;;;;;;;;;;10.70;99.90;;;;;;4972370;28;19931;-67
2023/01/06 14:15:55;;;;;;;;;;;10.70;99.90;;;;;;4976310;28;20370;-68
2023/01/06 14:18:36;;;;;;;;;;;10.70;99.90;;;;;;4975748;28;20405;-67
2023/01/06 14:21:05;;;;;;;;;;;10.70;99.90;;;;;;4977393;28;19926;-67
2023/01/06 14:23:33;;;;;;;;;;;10.70;99.90;;;;;;4974864;28;20013;-67
2023/01/06 14:26:00;;;;;;;;;;;10.70;99.90;;;;;;4972691;28;19926;-68
2023/01/06 14:28:30;;;;;;;;;;;10.70;99.90;;;;;;4972329;28;19926;-68
2023/01/06 14:31:30;;;;;;;;;;;10.60;99.90;;;;;;4973670;28;19987;-68
2023/01/06 14:33:57;;;;;;;;;;;10.70;99.90;;;;;;4893022;29;19935;-68
2023/01/06 14:36:25;;;;;;;;;;;10.60;99.90;;;;;;4904326;29;20351;-67
2023/01/06 14:38:53;;;;;;;;;;;10.70;99.90;;;;;;4923901;28;20397;-67
2023/01/06 14:41:22;;;;;;;;;;;10.60;99.90;;;;;;4972051;28;20306;-68
2023/01/06 14:43:55;;;;;;;;;;;10.60;99.90;;;;;;4973622;28;20020;-68
2023/01/06 14:46:24;;;;;;;;;;;10.70;99.90;;;;;;4967901;28;20461;-69
2023/01/06 14:48:53;;;;;;;;;;;10.70;99.90;;;;;;4971930;28;19926;-67
2023/01/06 14:51:21;;;;;;;;;;;10.70;99.90;;;;;;4972100;28;20356;-68
2023/01/06 14:53:50;;;;;;;;;;;10.60;99.90;;;;;;4971365;28;19941;-68
2023/01/06 14:56:17;;;;;;;;;;;10.60;99.90;;;;;;4972042;28;20370;-73
2023/01/06 14:58:44;;;;;;;;;;;10.60;99.90;;;;;;4971106;28;19938;-69
2023/01/06 15:01:20;;;;;;;;;;;10.60;99.90;;;;;;4972163;28;19962;-69
2023/01/06 15:03:53;;;;;;;;;;;10.60;99.90;;;;;;4975663;28;19934;-69
2023/01/06 15:06:21;;;;;;;;;;;10.60;99.90;;;;;;4972690;28;20337;-68
2023/01/06 15:08:48;;;;;;;;;;;10.60;99.90;;;;;;4972325;28;20342;-68
2023/01/06 15:11:26;;;;;;;;;;;10.50;99.90;;;;;;4969612;28;19934;-68
2023/01/06 15:13:53;;;;;;;;;;;10.50;99.90;;;;;;4975170;28;20345;-68
2023/01/06 15:16:26;;;;;;;;;;;10.50;99.90;;;;;;4972596;28;19926;-68
2023/01/06 15:18:53;;;;;;;;;;;10.50;99.90;;;;;;4981271;28;19926;-68
2023/01/06 15:21:21;;;;;;;;;;;10.50;99.90;;;;;;4984824;28;20017;-68
2023/01/06 15:23:49;;;;;;;;;;;10.50;99.90;;;;;;4973363;28;19926;-67
2023/01/06 15:26:17;;;;;;;;;;;10.50;99.90;;;;;;4968410;28;20021;-67
2023/01/06 15:28:55;;;;;;;;;;;10.50;99.90;;;;;;4973052;28;19930;-67
2023/01/06 15:31:23;;;;;;;;;;;10.50;99.90;;;;;;4975405;28;20345;-67
2023/01/06 15:33:51;;;;;;;;;;;10.50;99.90;;;;;;4975456;28;20488;-68
2023/01/06 15:36:20;;;;;;;;;;;10.50;99.90;;;;;;4972223;28;20313;-68
2023/01/06 15:38:48;;;;;;;;;;;10.50;99.90;;;;;;4974870;28;19980;-73
2023/01/06 15:43:56;;;;;;;;;;;10.40;99.90;;;;;;4971031;28;19926;-71
2023/01/06 15:46:24;;;;;;;;;;;10.40;99.90;;;;;;4967929;28;19965;-68
2023/01/06 15:48:51;;;;;;;;;;;10.50;99.90;;;;;;4971456;28;19930;-69
2023/01/06 15:51:19;;;;;;;;;;;10.40;99.90;;;;;;4971399;28;20376;-66
2023/01/06 15:53:47;;;;;;;;;;;10.40;99.90;;;;;;4972533;28;19941;-66
2023/01/06 15:56:17;;;;;;;;;;;10.40;99.90;;;;;;4970285;28;19930;-66
2023/01/06 15:58:44;;;;;;;;;;;10.30;99.90;;;;;;4970143;28;19927;-68
2023/01/06 16:01:14;;;;;;;;;;;10.30;99.90;;;;;;4997117;23;19926;-66
2023/01/06 16:03:45;;;;;;;;;;;10.30;99.90;;;;;;4985800;28;19930;-73
2023/01/06 16:06:13;;;;;;;;;;;10.30;99.90;;;;;;4971816;28;20380;-73
2023/01/06 16:08:40;;;;;;;;;;;10.20;99.90;;;;;;4973123;28;19973;-73
2023/01/06 16:11:54;;;;;;;;;;;10.20;99.90;;;;;;4973389;28;19926;-71
2023/01/06 16:14:24;;;;;;;;;;;10.10;99.90;;;;;;4969983;28;19977;-72
2023/01/06 16:16:51;;;;;;;;;;;10.20;99.90;;;;;;4971846;28;19933;-72
2023/01/06 16:19:20;;;;;;;;;;;10.20;99.90;;;;;;4970590;28;19926;-72
2023/01/06 16:21:50;;;;;;;;;;;10.20;99.90;;;;;;4970473;28;19934;-73
2023/01/06 16:24:19;;;;;;;;;;;10.20;99.90;;;;;;4973075;28;20021;-74
2023/01/06 16:26:50;;;;;;;;;;;10.20;99.90;;;;;;4969723;28;20421;-72
2023/01/06 16:29:24;;;;;;;;;;;10.20;99.90;;;;;;4970919;28;19932;-73
2023/01/06 16:31:51;;;;;;;;;;;10.20;99.90;;;;;;4965191;28;20301;-72
2023/01/06 16:34:25;;;;;;;;;;;10.20;99.90;;;;;;4971144;28;19926;-73
2023/01/06 16:36:55;;;;;;;;;;;10.40;99.90;;;;;;4967273;28;19933;-73
2023/01/06 16:39:22;;;;;;;;;;;10.40;99.90;;;;;;4967923;28;20032;-73
2023/01/06 16:42:38;;;;;;;;;;;10.30;99.90;;;;;;4971042;28;19933;-73
2023/01/06 16:44:58;;;;;;;;;;;10.30;99.90;;;;;;4970150;28;19978;-73
2023/01/06 16:47:25;;;;;;;;;;;10.30;99.90;;;;;;4970894;28;20313;-73
2023/01/06 16:49:54;;;;;;;;;;;10.30;99.90;;;;;;4970304;28;19933;-73
2023/01/06 16:52:20;;;;;;;;;;;10.30;99.90;;;;;;4966345;28;19933;-72
2023/01/06 16:54:52;;;;;;;;;;;10.30;99.90;;;;;;4971094;28;19934;-73
2023/01/06 16:57:18;;;;;;;;;;;10.40;99.90;;;;;;4970811;28;19930;-73
2023/01/06 16:59:45;;;;;;;;;;;10.30;99.90;;;;;;4970352;28;19926;-73
2023/01/06 17:02:14;;;;;;;;;;;10.30;99.90;;;;;;4970681;28;19930;-73
2023/01/06 17:04:41;;;;;;;;;;;10.40;99.90;;;;;;4970786;28;19930;-72
2023/01/06 17:07:11;;;;;;;;;;;10.30;99.90;;;;;;4970926;28;19981;-74
2023/01/06 17:09:38;;;;;;;;;;;10.30;99.90;;;;;;4970195;28;19973;-72
2023/01/06 17:12:08;;;;;;;;;;;10.20;99.90;;;;;;4981496;28;19929;-75
2023/01/06 17:14:36;;;;;;;;;;;10.20;99.90;;;;;;4972054;28;19926;-72
2023/01/06 17:17:11;;;;;;;;;;;10.30;99.90;;;;;;4979325;28;19926;-74
2023/01/06 17:19:37;;;;;;;;;;;10.30;99.90;;;;;;4969837;28;19981;-73
2023/01/06 17:22:12;;;;;;;;;;;10.40;99.90;;;;;;4970441;28;19953;-73
2023/01/06 17:24:40;;;;;;;;;;;10.40;99.90;;;;;;4973041;28;19926;-72
2023/01/06 17:27:16;;;;;;;;;;;10.40;99.90;;;;;;4972974;28;19973;-73
2023/01/06 17:29:43;;;;;;;;;;;10.40;99.90;;;;;;4969986;28;19958;-71
2023/01/06 17:32:13;;;;;;;;;;;10.40;99.90;;;;;;4972005;28;19969;-73
2023/01/06 17:34:40;;;;;;;;;;;10.40;99.90;;;;;;4973094;28;19925;-73
2023/01/06 17:37:10;;;;;;;;;;;10.30;99.90;;;;;;4973792;28;19985;-72
2023/01/06 17:39:39;;;;;;;;;;;10.30;99.90;;;;;;4966903;28;19933;-71
2023/01/06 17:42:23;;;;;;;;;;;10.30;99.90;;;;;;4973889;28;20364;-72
2023/01/06 17:44:52;;;;;;;;;;;10.40;99.90;;;;;;4974092;28;19977;-74
2023/01/06 17:47:26;;;;;;;;;;;10.30;99.90;;;;;;4973519;28;19962;-75
2023/01/06 17:49:54;;;;;;;;;;;10.30;99.90;;;;;;4971649;28;19926;-79
2023/01/06 17:52:22;;;;;;;;;;;10.20;99.90;;;;;;4974772;28;19926;-76
2023/01/06 17:57:40;;;;;;;;;;;10.20;99.90;;;;;;4974384;28;19922;-76
2023/01/06 18:00:18;;;;;;;;;;;10.20;99.90;;;;;;4973033;28;19926;-73
2023/01/06 18:02:47;;;;;;;;;;;10.20;99.90;;;;;;4973358;28;20341;-73
2023/01/06 18:05:33;;;;;;;;;;;10.20;99.90;;;;;;4973741;28;19926;-74
2023/01/06 18:08:02;;;;;;;;;;;10.20;99.90;;;;;;4973523;28;20013;-74
2023/01/06 18:10:28;;;;;;;;;;;10.20;99.90;;;;;;4981713;28;19980;-71
2023/01/06 18:12:57;;;;;;;;;;;10.20;99.90;;;;;;4982274;28;19982;-78
2023/01/06 18:15:30;;;;;;;;;;;10.30;99.90;;;;;;4974649;28;19926;-71
2023/01/06 18:17:57;;;;;;;;;;;10.30;99.90;;;;;;4971571;28;19926;-69
2023/01/06 18:20:24;;;;;;;;;;;10.40;99.90;;;;;;4972638;28;19926;-68
2023/01/06 18:22:51;;;;;;;;;;;10.50;99.90;;;;;;4973368;28;20382;-70
2023/01/06 18:25:19;;;;;;;;;;;10.50;99.90;;;;;;4972826;28;19927;-69
2023/01/06 18:27:46;;;;;;;;;;;10.50;99.90;;;;;;4973183;28;20000;-70
2023/01/06 18:30:20;;;;;;;;;;;10.60;99.90;;;;;;4972740;28;19981;-70
2023/01/06 18:32:48;;;;;;;;;;;10.60;99.90;;;;;;4973772;28;19938;-70
2023/01/06 18:35:16;;;;;;;;;;;10.70;99.90;;;;;;4973109;28;19941;-70
2023/01/06 18:37:44;;;;;;;;;;;10.70;99.90;;;;;;4979264;28;19926;-71